Time;durP1;ratioP1;P1;durP2;ratioP2;P2;SDS_P1;SDS_P2;PMS_P1;PMS_P2;Temp;Humidity;BMP_temperature;BMP_pressure;BME280_temperature;BME280_humidity;BME280_pressure;Samples;Min_cycle;Max_cycle;Signal;HPM_P1;HPM_P2
2022/03/21 00:01:10;;;;;;;;;;;5.50;88.20;;;4.79;58.45;98485.50;5049063;28;19924;-46
2022/03/21 00:03:36;;;;;;;;;;;5.40;88.50;;;4.81;57.88;98498.56;5045331;28;20669;-43
2022/03/21 00:06:02;;;;;;;;;;;5.50;88.50;;;4.83;57.22;98494.22;5050813;28;21287;-48
2022/03/21 00:08:28;;;;;;;;;;;5.40;87.80;;;4.81;57.32;98501.19;5036298;28;19963;-46
2022/03/21 00:10:55;;;;;;;;;;;5.40;88.00;;;4.82;57.00;98500.34;5050246;28;20536;-48
2022/03/21 00:13:21;;;;;;;;;;;5.40;87.80;;;4.83;57.19;98510.81;5049619;28;19918;-50
2022/03/21 00:15:48;;;;;;;;;;;5.40;87.90;;;4.82;59.18;98510.78;5052386;28;19917;-43
2022/03/21 00:18:14;;;;;;;;;;;5.40;89.50;;;4.76;60.02;98509.91;5053106;28;19928;-41
2022/03/21 00:20:44;;;;;;;;;;;5.40;90.20;;;4.64;61.01;98496.78;5037552;28;19924;-44
2022/03/21 00:23:10;;;;;;;;;;;5.30;90.40;;;4.67;60.48;98509.00;5051148;28;20585;-46
2022/03/21 00:25:36;;;;;;;;;;;5.30;90.40;;;4.62;59.55;98511.56;5054056;28;20031;-46
2022/03/21 00:28:02;;;;;;;;;;;5.20;90.00;;;4.58;58.49;98500.22;5049605;28;20031;-43
2022/03/21 00:30:29;;;;;;;;;;;5.20;89.20;;;4.64;58.18;98514.19;5051373;28;19982;-47
2022/03/21 00:32:55;;;;;;;;;;;5.20;88.90;;;4.67;58.55;98512.47;5053405;28;19959;-50
2022/03/21 00:35:20;;;;;;;;;;;5.20;89.20;;;4.66;59.04;98515.94;5052780;28;19964;-42
2022/03/21 00:37:46;;;;;;;;;;;5.20;89.70;;;4.64;59.24;98507.22;5053816;28;20516;-47
2022/03/21 00:40:14;;;;;;;;;;;5.20;89.90;;;4.59;59.35;98516.78;5051251;28;19974;-49
2022/03/21 00:42:40;;;;;;;;;;;5.20;90.00;;;4.57;59.29;98514.16;5050562;28;20016;-46
2022/03/21 00:45:12;;;;;;;;;;;5.20;90.00;;;4.52;59.88;98507.16;5052585;28;19973;-50
2022/03/21 00:47:38;;;;;;;;;;;5.10;90.10;;;4.46;59.65;98508.00;5038159;28;19931;-45
2022/03/21 00:50:05;;;;;;;;;;;5.10;90.00;;;4.37;60.65;98502.75;5056586;28;19964;-45
2022/03/21 00:52:32;;;;;;;;;;;5.10;90.40;;;4.40;60.09;98516.69;5051453;28;19944;-51
2022/03/21 00:54:59;;;;;;;;;;;5.00;90.20;;;4.42;59.69;98510.63;5054558;28;19989;-46
2022/03/21 00:57:24;;;;;;;;;;;5.00;90.10;;;4.43;59.67;98514.97;5052954;28;20333;-45
2022/03/21 00:59:50;;;;;;;;;;;5.00;90.10;;;4.43;58.48;98507.97;5053989;28;19920;-46
2022/03/21 01:02:15;;;;;;;;;;;5.00;89.40;;;4.46;59.66;98505.41;5053369;28;19943;-50
2022/03/21 01:04:42;;;;;;;;;;;5.00;90.20;;;4.43;60.04;98507.13;5048569;28;19924;-48
2022/03/21 01:07:08;;;;;;;;;;;5.00;90.30;;;4.43;59.54;98510.59;5053148;28;19952;-47
2022/03/21 01:09:33;;;;;;;;;;;5.00;90.10;;;4.40;59.51;98508.00;5054000;28;20495;-44
2022/03/21 01:12:03;;;;;;;;;;;5.00;90.00;;;4.39;58.88;98499.25;5053312;28;19927;-47
2022/03/21 01:14:31;;;;;;;;;;;5.00;90.00;;;4.29;58.81;98492.25;5036169;28;20103;-46
2022/03/21 01:16:57;;;;;;;;;;;5.00;89.80;;;4.39;59.94;98507.09;5046164;28;20940;-50
2022/03/21 01:19:23;;;;;;;;;;;5.00;90.20;;;4.33;60.74;98504.47;5051121;28;20451;-48
2022/03/21 01:21:49;;;;;;;;;;;5.00;90.60;;;4.34;58.69;98510.56;5033732;28;20346;-48
2022/03/21 01:24:15;;;;;;;;;;;5.00;89.70;;;4.35;58.51;98502.72;5053846;28;19960;-48
2022/03/21 01:26:40;;;;;;;;;;;5.00;89.20;;;4.34;60.64;98511.44;5048068;28;19916;-46
2022/03/21 01:29:06;;;;;;;;;;;5.00;90.60;;;4.31;61.62;98516.66;5049223;28;19920;-47
2022/03/21 01:31:32;;;;;;;;;;;5.00;90.80;;;4.22;62.64;98521.81;5049796;28;19952;-49
2022/03/21 01:33:58;;;;;;;;;;;4.90;91.10;;;4.17;63.23;98515.69;5032698;28;19925;-45
2022/03/21 01:36:24;;;;;;;;;;;4.80;91.50;;;4.10;63.46;98513.91;5050008;28;20445;-47
2022/03/21 01:38:49;;;;;;;;;;;4.80;91.50;;;3.99;64.14;98499.03;5051862;28;20025;-48
2022/03/21 01:41:15;;;;;;;;;;;4.70;91.70;;;4.01;64.20;98518.19;5054855;28;19925;-44
2022/03/21 01:44:00;;;;;;;;;;;4.70;91.70;;;3.95;65.35;98525.97;5036433;28;19930;-48
2022/03/21 01:46:27;;;;;;;;;;;4.60;92.10;;;3.65;66.06;98489.22;5054154;28;19917;-51
2022/03/21 01:48:54;;;;;;;;;;;4.60;92.40;;;3.80;65.97;98518.03;5055666;28;19931;-46
2022/03/21 01:51:19;;;;;;;;;;;4.50;92.50;;;3.87;65.41;98522.41;5049307;28;19925;-50
2022/03/21 01:56:30;;;;;;;;;;;4.50;92.90;;;3.87;65.90;98524.16;5046622;28;20012;-49
2022/03/21 01:58:57;;;;;;;;;;;4.50;92.60;;;3.89;65.32;98536.34;5036661;28;19924;-50
2022/03/21 02:01:22;;;;;;;;;;;4.50;92.40;;;3.88;67.02;98534.63;5016502;28;20267;-48
2022/03/21 02:03:48;;;;;;;;;;;4.50;92.90;;;3.79;66.17;98524.13;5059093;28;19931;-46
2022/03/21 02:06:14;;;;;;;;;;;4.50;92.70;;;3.79;65.85;98524.97;5053637;28;19944;-47
2022/03/21 02:08:40;;;;;;;;;;;4.40;92.60;;;3.69;65.53;98530.09;5053957;28;19928;-47
2022/03/21 02:11:06;;;;;;;;;;;4.40;92.50;;;3.74;64.63;98537.09;5054470;28;19931;-47
2022/03/21 02:13:34;;;;;;;;;;;4.40;92.30;;;3.79;64.49;98524.97;5037854;28;20043;-48
2022/03/21 02:16:00;;;;;;;;;;;4.50;92.30;;;3.87;63.84;98530.25;5050579;28;19924;-46
2022/03/21 02:18:26;;;;;;;;;;;4.50;92.00;;;3.88;65.28;98528.53;5046439;28;20439;-48
2022/03/21 02:20:53;;;;;;;;;;;4.60;92.40;;;3.85;64.82;98528.50;5027079;28;19955;-49
2022/03/21 02:23:31;;;;;;;;;;;4.50;92.30;;;3.89;64.03;98530.28;5027942;28;19924;-47
2022/03/21 02:25:57;;;;;;;;;;;4.50;92.10;;;3.90;63.90;98519.84;5047618;28;19982;-49
2022/03/21 02:28:24;;;;;;;;;;;4.50;91.90;;;3.90;64.78;98524.19;5028360;28;19952;-46
2022/03/21 02:30:50;;;;;;;;;;;4.50;92.50;;;3.90;66.62;98527.66;5047327;28;20086;-49
2022/03/21 02:33:17;;;;;;;;;;;4.50;93.00;;;3.90;67.81;98522.47;5026767;28;19970;-42
2022/03/21 02:35:45;;;;;;;;;;;4.50;93.50;;;3.91;67.13;98528.53;5048198;28;19920;-47
2022/03/21 02:38:10;;;;;;;;;;;4.50;93.30;;;3.92;67.13;98530.31;5047174;28;20397;-47
2022/03/21 02:40:36;;;;;;;;;;;4.50;93.20;;;3.93;66.89;98534.63;5031190;28;20699;-47
2022/03/21 02:43:02;;;;;;;;;;;4.60;93.30;;;3.96;66.00;98532.06;5049438;28;19920;-51
2022/03/21 02:45:27;;;;;;;;;;;4.60;93.40;;;4.03;65.41;98536.47;5045478;28;19925;-50
2022/03/21 02:47:53;;;;;;;;;;;4.60;92.80;;;4.06;66.50;98533.88;5051890;28;19916;-48
2022/03/21 02:50:31;;;;;;;;;;;4.70;93.10;;;4.09;68.39;98538.25;5053396;28;20445;-51
2022/03/21 02:52:57;;;;;;;;;;;4.70;93.80;;;4.07;66.94;98535.63;5053993;28;19917;-45
2022/03/21 02:55:23;;;;;;;;;;;4.70;93.40;;;4.09;65.94;98535.63;5050756;28;20750;-45
2022/03/21 02:57:51;;;;;;;;;;;4.70;93.00;;;4.06;66.03;98533.03;5052250;28;20231;-41
2022/03/21 03:00:16;;;;;;;;;;;4.70;93.00;;;4.01;67.01;98530.38;5054421;28;19920;-49
2022/03/21 03:02:42;;;;;;;;;;;4.70;93.30;;;3.96;66.32;98535.53;5049646;28;19920;-46
2022/03/21 03:05:08;;;;;;;;;;;4.60;93.10;;;3.72;67.30;98502.31;5053020;28;20298;-49
2022/03/21 03:07:34;;;;;;;;;;;4.60;93.40;;;3.85;68.25;98536.34;5051976;28;19956;-46
2022/03/21 03:10:01;;;;;;;;;;;4.50;93.80;;;3.79;66.08;98534.56;5053592;28;19928;-50
2022/03/21 03:12:26;;;;;;;;;;;4.50;93.10;;;3.77;65.84;98541.50;5050298;28;19916;-48
2022/03/21 03:14:52;;;;;;;;;;;4.40;93.00;;;3.69;67.13;98541.41;5048628;28;20545;-46
2022/03/21 03:17:17;;;;;;;;;;;4.40;93.40;;;3.63;65.64;98544.84;5046409;28;19971;-50
2022/03/21 03:19:43;;;;;;;;;;;4.30;93.00;;;3.61;65.87;98550.91;5050628;28;19924;-48
2022/03/21 03:22:09;;;;;;;;;;;4.30;93.20;;;3.60;68.11;98536.97;5048719;28;19921;-47
2022/03/21 03:24:35;;;;;;;;;;;4.30;93.80;;;3.54;69.23;98544.75;5049044;28;19920;-49
2022/03/21 03:27:01;;;;;;;;;;;4.30;94.20;;;3.52;69.97;98554.31;5028773;28;20270;-46
2022/03/21 03:29:26;;;;;;;;;;;4.20;94.40;;;3.26;71.42;98514.94;5048970;28;20030;-50
2022/03/21 03:31:52;;;;;;;;;;;4.10;94.90;;;3.40;72.08;98560.28;5053296;28;19920;-45
2022/03/21 03:34:17;;;;;;;;;;;4.10;95.20;;;3.34;72.91;98556.72;5032370;28;19943;-48
2022/03/21 03:36:43;;;;;;;;;;;4.00;95.50;;;3.25;71.98;98550.56;5050912;28;20011;-47
2022/03/21 03:39:09;;;;;;;;;;;3.90;95.20;;;3.18;71.62;98547.88;5052685;28;19920;-47
2022/03/21 03:41:34;;;;;;;;;;;3.90;95.20;;;3.17;72.32;98560.03;5051210;28;19921;-49
2022/03/21 03:44:00;;;;;;;;;;;3.80;95.30;;;3.14;72.51;98552.19;5049799;28;19959;-48
2022/03/21 03:46:26;;;;;;;;;;;3.80;95.50;;;3.11;74.36;98559.09;5047140;28;20263;-45
2022/03/21 03:48:54;;;;;;;;;;;3.80;96.10;;;3.06;74.78;98546.88;5052623;28;19995;-46
2022/03/21 03:51:20;;;;;;;;;;;3.70;96.30;;;3.03;74.60;98545.97;5051767;28;19925;-41
2022/03/21 03:53:45;;;;;;;;;;;3.70;96.30;;;2.99;74.85;98552.00;5056919;28;19943;-46
2022/03/21 03:56:11;;;;;;;;;;;3.60;96.40;;;2.91;75.85;98545.81;5052071;28;20382;-44
2022/03/21 03:58:37;;;;;;;;;;;3.60;96.80;;;2.86;77.10;98548.38;5052648;28;20027;-43
2022/03/21 04:01:04;;;;;;;;;;;3.60;97.40;;;2.76;78.52;98517.84;5055018;28;20360;-46
2022/03/21 04:03:45;;;;;;;;;;;3.60;98.00;;;2.91;78.83;98545.81;5055174;28;19932;-45
2022/03/21 04:06:21;;;;;;;;;;;3.60;98.20;;;2.91;78.24;98538.00;5052595;28;19955;-46
2022/03/21 04:08:49;;;;;;;;;;;3.60;98.00;;;2.94;78.24;98540.63;5052898;28;19924;-48
2022/03/21 04:11:15;;;;;;;;;;;3.70;98.10;;;2.85;78.09;98537.09;5055003;28;20023;-50
2022/03/21 04:13:42;;;;;;;;;;;3.70;98.00;;;2.89;78.06;98548.41;5052467;28;20416;-47
2022/03/21 04:16:08;;;;;;;;;;;3.70;98.10;;;2.86;78.45;98549.25;5050988;28;19929;-47
2022/03/21 04:18:35;;;;;;;;;;;3.60;98.30;;;2.81;78.84;98555.25;5054773;28;20398;-44
2022/03/21 04:21:01;;;;;;;;;;;3.60;98.50;;;2.77;79.46;98553.47;5052703;28;19920;-48
2022/03/21 04:23:27;;;;;;;;;;;3.50;98.70;;;2.73;79.96;98563.00;5037558;28;19916;-49
2022/03/21 04:25:53;;;;;;;;;;;3.50;99.00;;;2.69;80.15;98553.34;5056144;28;19947;-47
2022/03/21 04:28:18;;;;;;;;;;;3.40;99.10;;;2.64;80.56;98557.66;5054825;28;19917;-48
2022/03/21 04:30:44;;;;;;;;;;;3.40;99.30;;;2.62;80.23;98559.34;5052684;28;20007;-49
2022/03/21 04:33:12;;;;;;;;;;;3.40;99.30;;;2.60;80.50;98559.34;5053285;28;20011;-47
2022/03/21 04:35:38;;;;;;;;;;;3.30;99.60;;;2.58;81.45;98561.03;5051704;28;20057;-48
2022/03/21 04:38:12;;;;;;;;;;;3.30;99.90;;;2.54;81.44;98564.47;5051129;28;20369;-46
2022/03/21 04:40:39;;;;;;;;;;;3.30;99.90;;;2.51;80.03;98567.00;5052471;28;20293;-48
2022/03/21 04:43:04;;;;;;;;;;;3.20;99.70;;;2.52;77.99;98573.97;5055938;28;20343;-46
2022/03/21 04:45:30;;;;;;;;;;;3.20;99.10;;;2.54;78.37;98580.09;5052547;28;19920;-46
2022/03/21 04:47:56;;;;;;;;;;;3.20;99.30;;;2.55;79.27;98583.56;5047195;28;19997;-44
2022/03/21 04:50:21;;;;;;;;;;;3.30;99.70;;;2.49;79.26;98579.13;5057299;28;19931;-47
2022/03/21 04:52:47;;;;;;;;;;;3.20;99.80;;;2.50;78.99;98590.47;5058847;28;20286;-45
2022/03/21 04:55:15;;;;;;;;;;;3.20;99.70;;;2.47;78.52;98586.06;5057268;28;20279;-48
2022/03/21 04:57:41;;;;;;;;;;;3.20;99.50;;;2.42;77.02;98573.00;5053562;28;19927;-46
2022/03/21 05:00:07;;;;;;;;;;;3.20;99.10;;;2.49;77.18;98581.75;5051479;28;20327;-50
2022/03/21 05:02:32;;;;;;;;;;;3.30;99.20;;;2.41;77.08;98570.38;5049440;28;19936;-47
2022/03/21 05:04:58;;;;;;;;;;;3.30;99.20;;;2.48;76.81;98595.63;5049702;28;19978;-46
2022/03/21 05:07:25;;;;;;;;;;;3.30;99.10;;;2.46;76.63;98593.00;5056390;28;19921;-48
2022/03/21 05:09:51;;;;;;;;;;;3.20;99.00;;;2.44;77.64;98586.00;5052149;28;19932;-46
2022/03/21 05:12:17;;;;;;;;;;;3.20;99.50;;;2.42;78.61;98588.63;5058939;28;19924;-49
2022/03/21 05:14:42;;;;;;;;;;;3.10;99.90;;;2.37;79.38;98590.28;5057175;28;20297;-45
2022/03/21 05:17:10;;;;;;;;;;;3.10;99.90;;;2.36;79.56;98592.84;5054160;28;20635;-46
2022/03/21 05:19:36;;;;;;;;;;;3.10;99.90;;;2.32;79.44;98588.47;5054958;28;19978;-51
2022/03/21 05:22:05;;;;;;;;;;;3.10;99.90;;;2.28;80.11;98593.63;5055026;28;19928;-49
2022/03/21 05:32:45;;;;;;;;;;;2.90;99.90;;;2.22;82.37;98592.63;5058136;28;20011;-45
2022/03/21 05:37:55;;;;;;;;;;;2.90;99.90;;;2.25;82.65;98597.91;5056897;28;19931;-46
2022/03/21 05:40:34;;;;;;;;;;;3.00;99.90;;;2.26;82.87;98602.22;5056203;28;19920;-46
2022/03/21 05:43:01;;;;;;;;;;;3.00;99.90;;;2.29;83.06;98613.56;5052971;28;19924;-46
2022/03/21 05:45:28;;;;;;;;;;;3.00;99.90;;;2.25;82.55;98595.28;5052079;28;20432;-46
2022/03/21 05:50:39;;;;;;;;;;;3.10;99.90;;;2.37;83.18;98621.53;5055272;28;19928;-46
2022/03/21 05:53:06;;;;;;;;;;;3.10;99.90;;;2.42;82.80;98616.38;5058059;28;20447;-44
2022/03/21 05:55:32;;;;;;;;;;;3.20;99.90;;;2.50;83.08;98621.72;5052792;28;20421;-46
2022/03/21 05:57:58;;;;;;;;;;;3.20;99.90;;;2.54;82.97;98616.53;5056205;28;19920;-46
2022/03/21 06:00:24;;;;;;;;;;;3.20;99.90;;;2.59;82.53;98624.44;5056744;28;19967;-46
2022/03/21 06:02:51;;;;;;;;;;;3.30;99.90;;;2.64;83.10;98617.56;5052407;28;19932;-46
2022/03/21 06:05:18;;;;;;;;;;;3.30;99.90;;;2.70;82.69;98630.66;5053940;28;19917;-46
2022/03/21 06:07:44;;;;;;;;;;;3.40;99.90;;;2.75;82.36;98628.13;5052243;28;20063;-47
2022/03/21 06:10:09;;;;;;;;;;;3.40;99.90;;;2.81;81.89;98623.88;5055791;28;20262;-46
2022/03/21 06:12:35;;;;;;;;;;;3.50;99.90;;;2.86;80.89;98637.84;5052426;28;20280;-42
2022/03/21 06:15:00;;;;;;;;;;;3.50;99.90;;;2.94;79.71;98650.09;5056113;28;19925;-46
2022/03/21 06:17:27;;;;;;;;;;;3.70;99.90;;;3.00;79.04;98640.63;5054008;28;19978;-46
2022/03/21 06:19:53;;;;;;;;;;;3.70;99.90;;;3.09;78.29;98645.09;5053746;28;19920;-42
2022/03/21 06:22:18;;;;;;;;;;;3.80;99.90;;;3.18;78.37;98646.94;5050599;28;20283;-45
2022/03/21 06:24:44;;;;;;;;;;;3.90;99.90;;;3.24;78.07;98653.09;5049817;28;19924;-46
2022/03/21 06:27:09;;;;;;;;;;;3.90;99.90;;;3.36;76.90;98655.00;5035265;28;20085;-46
2022/03/21 06:29:39;;;;;;;;;;;4.00;99.90;;;3.45;75.75;98651.63;5050022;28;20014;-46
2022/03/21 06:32:05;;;;;;;;;;;4.10;99.90;;;3.53;74.90;98654.31;5053315;28;19942;-46
2022/03/21 06:34:30;;;;;;;;;;;4.20;99.90;;;3.61;73.27;98656.13;5055273;28;19916;-47
2022/03/21 06:36:56;;;;;;;;;;;4.30;99.90;;;3.74;73.38;98653.66;5052205;28;19920;-46
2022/03/21 06:39:21;;;;;;;;;;;4.40;99.90;;;3.81;72.09;98664.19;5055715;28;19971;-47
2022/03/21 06:41:47;;;;;;;;;;;4.50;99.90;;;3.92;71.53;98655.59;5053192;28;19923;-44
2022/03/21 06:44:14;;;;;;;;;;;4.60;99.80;;;3.98;70.28;98655.63;5055315;28;20282;-46
2022/03/21 06:46:39;;;;;;;;;;;4.60;99.40;;;4.05;67.72;98651.34;5048508;28;20046;-44
2022/03/21 06:49:05;;;;;;;;;;;4.70;98.40;;;4.19;67.50;98652.34;5056918;28;20753;-47
2022/03/21 06:51:31;;;;;;;;;;;4.80;98.20;;;4.32;67.63;98655.94;5053391;28;19959;-47
2022/03/21 06:53:56;;;;;;;;;;;4.90;98.20;;;4.43;65.83;98659.50;5054606;28;19927;-46
2022/03/21 06:56:22;;;;;;;;;;;5.10;97.70;;;4.54;64.46;98652.63;5053739;28;19951;-46
2022/03/21 06:58:47;;;;;;;;;;;5.20;97.10;;;4.66;65.04;98659.66;5051286;28;19923;-46
2022/03/21 07:01:13;;;;;;;;;;;5.30;97.30;;;4.57;64.04;98623.88;5053508;28;20032;-46
2022/03/21 07:03:39;;;;;;;;;;;5.40;97.00;;;4.86;62.66;98661.53;5045657;28;20511;-46
2022/03/21 07:06:04;;;;;;;;;;;5.50;96.30;;;4.97;61.36;98660.75;5054367;28;19948;-43
2022/03/21 07:08:30;;;;;;;;;;;5.60;95.80;;;5.07;61.24;98664.28;5050759;28;19925;-46
2022/03/21 07:10:56;;;;;;;;;;;5.70;95.70;;;5.19;61.55;98665.19;5049188;28;19931;-45
2022/03/21 07:13:22;;;;;;;;;;;5.80;95.80;;;5.30;59.74;98672.25;5052444;28;22651;-47
2022/03/21 07:15:48;;;;;;;;;;;5.90;95.10;;;5.42;59.08;98681.91;5053594;28;19928;-46
2022/03/21 07:18:13;;;;;;;;;;;6.00;94.70;;;5.52;58.18;98677.56;5051122;28;22404;-44
2022/03/21 07:20:43;;;;;;;;;;;6.10;94.40;;;5.59;57.66;98670.59;5054844;28;20358;-47
2022/03/21 07:23:08;;;;;;;;;;;6.20;94.10;;;5.64;56.50;98676.75;5055689;28;19917;-45
2022/03/21 07:25:34;;;;;;;;;;;6.30;93.50;;;5.73;56.71;98674.16;5052347;28;19925;-44
2022/03/21 07:27:59;;;;;;;;;;;6.30;93.50;;;5.79;57.02;98673.28;5048894;28;19924;-47
2022/03/21 07:30:26;;;;;;;;;;;6.40;93.70;;;5.89;56.58;98681.16;5051652;28;19932;-42
2022/03/21 07:32:51;;;;;;;;;;;6.50;93.40;;;5.96;56.36;98678.56;5052417;28;20038;-47
2022/03/21 07:35:17;;;;;;;;;;;6.60;93.40;;;6.07;55.62;98687.34;5047738;28;19928;-46
2022/03/21 07:37:46;;;;;;;;;;;6.70;93.00;;;6.13;55.40;98687.34;5053135;28;19931;-46
2022/03/21 07:40:12;;;;;;;;;;;6.70;92.80;;;6.14;54.37;98688.22;5051843;28;19959;-46
2022/03/21 07:42:39;;;;;;;;;;;6.80;92.20;;;6.21;53.77;98696.09;5055089;28;19928;-47
2022/03/21 07:47:51;;;;;;;;;;;6.90;91.80;;;6.43;53.46;98698.75;5052454;28;20207;-46
2022/03/21 07:50:19;;;;;;;;;;;7.00;91.70;;;6.54;53.07;98699.59;5056694;28;20402;-46
2022/03/21 07:52:49;;;;;;;;;;;7.10;91.60;;;6.65;53.00;98699.59;5054188;28;20386;-46
2022/03/21 07:55:14;;;;;;;;;;;7.20;91.50;;;6.72;52.63;98703.09;5053181;28;19916;-46
2022/03/21 07:57:40;;;;;;;;;;;7.30;91.20;;;6.83;52.43;98701.34;5049798;28;19930;-47
2022/03/21 08:00:11;;;;;;;;;;;7.40;91.10;;;6.83;52.61;98688.22;5049617;28;19920;-46
2022/03/21 08:02:37;;;;;;;;;;;7.50;91.10;;;6.99;52.39;98707.44;5051692;28;20442;-45
2022/03/21 08:05:04;;;;;;;;;;;7.60;91.00;;;7.06;52.11;98704.78;5049339;28;20123;-47
2022/03/21 08:07:31;;;;;;;;;;;7.60;90.90;;;7.14;51.57;98704.81;5054492;28;20007;-46
2022/03/21 08:09:57;;;;;;;;;;;7.70;90.40;;;7.21;51.72;98714.41;5051188;28;19924;-45
2022/03/21 08:12:24;;;;;;;;;;;7.80;90.60;;;7.38;50.41;98709.09;5049684;28;19924;-46
2022/03/21 08:14:51;;;;;;;;;;;7.90;89.80;;;7.41;50.62;98716.06;5051540;28;19964;-44
2022/03/21 08:17:18;;;;;;;;;;;8.00;89.80;;;7.37;50.71;98701.22;5052491;28;19931;-46
2022/03/21 08:19:44;;;;;;;;;;;8.00;89.80;;;7.47;50.45;98715.22;5051136;28;19916;-45
2022/03/21 08:22:10;;;;;;;;;;;8.00;89.50;;;7.53;49.64;98709.91;5053268;28;22510;-45
2022/03/21 08:24:36;;;;;;;;;;;8.10;88.60;;;7.53;49.83;98702.03;5056029;28;19923;-46
2022/03/21 08:27:02;;;;;;;;;;;8.10;88.10;;;7.63;49.76;98709.88;5048150;28;20015;-46
2022/03/21 08:29:28;;;;;;;;;;;8.20;88.60;;;7.73;49.61;98713.31;5052409;28;19924;-45
2022/03/21 08:31:53;;;;;;;;;;;8.20;88.00;;;7.84;48.94;98711.53;5047164;28;20418;-47
2022/03/21 08:34:19;;;;;;;;;;;8.30;87.50;;;7.87;48.15;98708.00;5053746;28;20574;-46
2022/03/21 08:36:45;;;;;;;;;;;8.50;86.90;;;7.99;48.66;98707.94;5056035;28;20256;-47
2022/03/21 08:39:10;;;;;;;;;;;8.50;86.30;;;8.11;48.64;98709.66;5058993;28;20393;-47
2022/03/21 08:41:37;;;;;;;;;;;8.60;86.80;;;8.20;47.83;98709.59;5059251;28;19925;-46
2022/03/21 08:44:03;;;;;;;;;;;8.70;85.60;;;8.32;47.92;98713.88;5053608;28;19916;-46
2022/03/21 08:46:28;;;;;;;;;;;8.80;85.80;;;8.48;47.79;98711.19;5054322;28;20294;-47
2022/03/21 08:51:38;;;;;;;;;;;9.10;84.70;;;8.71;47.50;98708.38;5057671;28;20012;-46
2022/03/21 08:54:05;;;;;;;;;;;9.20;85.10;;;8.64;47.15;98675.09;5057110;28;20015;-47
2022/03/21 08:56:30;;;;;;;;;;;9.30;84.80;;;8.90;46.92;98701.16;5056101;28;19967;-46
2022/03/21 08:58:56;;;;;;;;;;;9.40;84.10;;;9.04;46.87;98703.66;5055622;28;19956;-47
2022/03/21 09:01:22;;;;;;;;;;;9.50;84.10;;;9.11;45.88;98690.41;5051303;28;19916;-47
2022/03/21 09:03:49;;;;;;;;;;;9.60;82.40;;;9.25;46.59;98706.06;5053883;28;20229;-47
2022/03/21 09:06:15;;;;;;;;;;;9.70;83.50;;;9.36;47.08;98691.03;5056813;28;20031;-45
2022/03/21 09:08:42;;;;;;;;;;;9.80;83.90;;;9.49;45.72;98696.16;5052952;28;20293;-47
2022/03/21 09:11:08;;;;;;;;;;;10.00;82.90;;;9.49;45.74;98686.50;5054968;28;19925;-46
2022/03/21 09:13:34;;;;;;;;;;;10.00;82.20;;;9.63;45.50;98702.13;5054795;28;19932;-47
2022/03/21 09:15:59;;;;;;;;;;;10.10;81.80;;;9.73;45.26;98701.13;5053472;28;19924;-47
2022/03/21 09:18:25;;;;;;;;;;;10.20;81.50;;;9.80;45.10;98698.41;5055668;28;19923;-47
2022/03/21 09:20:51;;;;;;;;;;;10.30;80.90;;;9.94;44.96;98693.81;5054837;28;20022;-48
2022/03/21 09:23:16;;;;;;;;;;;10.40;81.20;;;10.02;44.90;98697.22;5054466;28;19947;-47
2022/03/21 09:25:43;;;;;;;;;;;10.50;81.20;;;10.07;44.52;98695.41;5052610;28;20017;-45
2022/03/21 09:28:09;;;;;;;;;;;10.50;80.10;;;10.12;44.28;98697.97;5057736;28;20187;-46
2022/03/21 09:30:36;;;;;;;;;;;10.60;79.60;;;10.14;43.92;98698.84;5053908;28;20042;-43
2022/03/21 09:33:02;;;;;;;;;;;10.60;79.10;;;10.20;44.27;98695.22;5053524;28;19978;-47
2022/03/21 09:35:28;;;;;;;;;;;10.60;79.50;;;10.25;43.88;98696.91;5054140;28;20344;-47
2022/03/21 09:37:53;;;;;;;;;;;10.70;79.00;;;10.31;44.05;98694.19;5055378;28;20464;-48
2022/03/21 09:40:20;;;;;;;;;;;10.70;79.10;;;10.41;43.73;98688.78;5055044;28;20029;-45
2022/03/21 09:42:46;;;;;;;;;;;10.90;79.80;;;10.52;43.64;98693.91;5053327;28;19923;-47
2022/03/21 09:45:13;;;;;;;;;;;10.90;78.60;;;10.68;42.59;98695.41;5054311;28;19927;-46
2022/03/21 09:50:40;;;;;;;;;;;11.20;77.30;;;11.00;42.55;98693.94;5054010;28;20562;-46
2022/03/21 09:53:06;;;;;;;;;;;11.40;76.90;;;11.14;41.70;98694.56;5056806;28;20104;-47
2022/03/21 09:55:33;;;;;;;;;;;11.50;75.30;;;11.26;41.59;98694.34;5052176;28;19931;-46
2022/03/21 09:57:58;;;;;;;;;;;11.70;75.80;;;11.39;40.99;98688.81;5053868;28;20321;-46
2022/03/21 10:00:25;;;;;;;;;;;11.80;73.80;;;11.40;41.71;98693.22;5052314;28;20358;-44
2022/03/21 10:02:52;;;;;;;;;;;11.90;74.70;;;11.48;41.02;98690.41;5054172;28;19924;-48
2022/03/21 10:05:32;;;;;;;;;;;11.90;74.00;;;11.52;41.04;98689.44;5054979;28;19966;-48
2022/03/21 10:08:10;;;;;;;;;;;11.90;74.00;;;11.62;40.42;98689.22;5056477;28;20362;-47
2022/03/21 10:10:35;;;;;;;;;;;12.00;72.50;;;11.64;40.69;98681.28;5055010;28;19930;-45
2022/03/21 10:13:02;;;;;;;;;;;12.10;73.50;;;11.58;40.77;98684.91;5057893;28;19999;-47
2022/03/21 10:15:29;;;;;;;;;;;12.10;73.10;;;11.76;40.40;98680.16;5058101;28;19978;-47
2022/03/21 10:18:07;;;;;;;;;;;12.20;72.80;;;11.79;40.68;98685.34;5054553;28;20288;-48
2022/03/21 10:20:34;;;;;;;;;;;12.20;72.80;;;11.90;40.30;98688.69;5054554;28;19921;-48
2022/03/21 10:23:22;;;;;;;;;;;12.30;72.40;;;11.85;40.10;98678.16;5054997;28;19920;-46
2022/03/21 10:25:47;;;;;;;;;;;12.30;72.40;;;11.79;40.59;98672.13;5053752;28;19916;-47
2022/03/21 10:28:36;;;;;;;;;;;12.30;72.40;;;11.92;40.68;98683.38;5054827;28;19931;-42
2022/03/21 10:31:04;;;;;;;;;;;12.30;72.60;;;12.13;39.85;98685.53;5053783;28;19929;-47
2022/03/21 10:33:30;;;;;;;;;;;12.40;71.70;;;12.08;40.13;98679.47;5056261;28;19917;-47
2022/03/21 10:35:55;;;;;;;;;;;12.50;71.90;;;12.22;39.79;98685.31;5055448;28;20389;-41
2022/03/21 10:38:32;;;;;;;;;;;12.50;71.20;;;12.32;39.88;98680.69;5055688;28;20061;-47
2022/03/21 10:41:05;;;;;;;;;;;12.70;71.10;;;12.52;39.58;98687.28;5056021;28;19916;-47
2022/03/21 10:43:31;;;;;;;;;;;12.90;70.90;;;12.62;38.77;98683.50;5057273;28;19955;-44
2022/03/21 10:45:57;;;;;;;;;;;13.00;69.40;;;12.69;38.68;98673.63;5050525;28;20362;-47
2022/03/21 10:48:29;;;;;;;;;;;13.10;69.00;;;13.02;38.61;98679.81;5056044;28;20492;-47
2022/03/21 10:50:56;;;;;;;;;;;13.30;69.50;;;13.31;37.69;98675.56;5053040;28;19924;-45
2022/03/21 10:53:23;;;;;;;;;;;13.60;67.90;;;13.55;37.70;98674.00;5054474;28;20198;-47
2022/03/21 10:55:57;;;;;;;;;;;13.90;67.90;;;13.69;37.16;98674.47;5055311;28;19912;-47
2022/03/21 10:58:47;;;;;;;;;;;14.10;66.90;;;13.95;36.95;98675.47;5054889;28;19924;-45
2022/03/21 11:01:16;;;;;;;;;;;14.30;67.10;;;14.03;36.00;98667.28;5055758;28;20046;-46
2022/03/21 11:03:49;;;;;;;;;;;14.50;65.10;;;14.15;36.34;98674.88;5052107;28;20474;-48
2022/03/21 11:06:14;;;;;;;;;;;14.70;65.10;;;14.19;35.71;98668.53;5055232;28;20007;-46
2022/03/21 11:08:40;;;;;;;;;;;14.60;63.50;;;14.25;36.07;98673.66;5053291;28;19947;-46
2022/03/21 11:11:08;;;;;;;;;;;14.60;64.20;;;14.16;36.49;98663.34;5048478;28;19925;-48
2022/03/21 11:13:36;;;;;;;;;;;14.70;64.10;;;14.43;35.25;98666.03;5048526;28;19917;-46
2022/03/21 11:16:01;;;;;;;;;;;14.80;63.00;;;14.36;34.49;98662.72;5048503;28;19931;-48
2022/03/21 11:18:28;;;;;;;;;;;14.80;61.50;;;14.33;35.03;98650.38;5051392;28;19924;-48
2022/03/21 11:20:55;;;;;;;;;;;14.80;61.70;;;14.43;35.49;98656.28;5051550;28;20109;-47
2022/03/21 11:23:21;;;;;;;;;;;14.90;62.80;;;14.49;35.09;98658.72;5053729;28;19924;-43
2022/03/21 11:25:54;;;;;;;;;;;15.00;62.00;;;14.47;35.87;98654.41;5052047;28;19917;-42
2022/03/21 11:28:31;;;;;;;;;;;15.00;62.70;;;14.56;34.57;98656.75;5069655;22;19917;-35
2022/03/21 11:31:04;;;;;;;;;;;15.10;60.40;;;14.70;34.66;98661.63;5033215;28;20362;-36
2022/03/21 11:33:47;;;;;;;;;;;15.10;60.80;;;14.81;34.49;98664.78;5019857;28;19920;-36
2022/03/21 11:36:13;;;;;;;;;;;15.20;60.40;;;14.97;34.19;98666.94;5033250;28;20298;-35
2022/03/21 11:38:46;;;;;;;;;;;15.30;60.00;;;14.87;34.18;98667.22;5035661;28;19929;-35
2022/03/21 11:41:13;;;;;;;;;;;15.30;59.80;;;15.02;33.48;98654.34;5035498;28;19929;-36
2022/03/21 11:43:40;;;;;;;;;;;15.40;59.30;;;15.14;33.95;98661.88;5037754;28;19917;-38
2022/03/21 11:46:25;;;;;;;;;;;15.50;59.80;;;15.14;34.24;98655.72;5037177;28;19956;-31
2022/03/21 11:48:53;;;;;;;;;;;15.50;59.50;;;15.00;33.46;98651.75;5035780;28;20220;-36
2022/03/21 11:51:18;;;;;;;;;;;15.60;59.10;;;15.15;34.49;98646.81;5036505;28;19920;-34
2022/03/21 11:53:46;;;;;;;;;;;15.50;60.10;;;15.10;33.97;98635.50;5037125;28;19928;-37